createdAt,value
2019-01-05T00:00:52.961Z,73.32
2019-01-05T00:03:19.245Z,73.13
2019-01-05T00:05:45.581Z,72.80
2019-01-05T00:08:11.881Z,72.67
2019-01-05T00:10:38.174Z,72.26
2019-01-05T00:13:04.458Z,71.89
2019-01-05T00:15:30.749Z,72.21
2019-01-05T00:17:57.078Z,72.26
2019-01-05T00:20:23.351Z,72.57
2019-01-05T00:22:49.652Z,72.40
2019-01-05T00:25:15.956Z,72.45
2019-01-05T00:27:42.252Z,72.54
2019-01-05T00:30:08.601Z,72.50
2019-01-05T00:32:34.895Z,72.67
2019-01-05T00:35:01.168Z,72.47
2019-01-05T00:37:27.475Z,71.94
2019-01-05T00:39:53.774Z,71.95
2019-01-05T00:42:20.056Z,71.23
2019-01-05T00:44:46.350Z,71.38
2019-01-05T00:47:12.681Z,71.60
2019-01-05T00:49:38.933Z,71.43
2019-01-05T00:52:05.209Z,71.57
2019-01-05T00:54:31.530Z,71.63
2019-01-05T00:56:57.824Z,71.68
2019-01-05T00:59:24.120Z,71.91
2019-01-05T01:01:50.391Z,71.90
2019-01-05T01:04:16.668Z,72.00
2019-01-05T01:06:42.949Z,72.22
2019-01-05T01:09:09.279Z,72.67
2019-01-05T01:11:35.569Z,72.87
2019-01-05T01:14:01.864Z,73.30
2019-01-05T01:16:28.152Z,73.24
2019-01-05T01:18:54.444Z,73.18
2019-01-05T01:21:20.725Z,73.12
2019-01-05T01:23:47.039Z,72.96
2019-01-05T01:26:13.325Z,72.81
2019-01-05T01:28:39.620Z,72.28
2019-01-05T01:31:05.901Z,72.21
2019-01-05T01:33:32.219Z,72.53
2019-01-05T01:35:58.531Z,72.80
2019-01-05T01:38:24.850Z,72.32
2019-01-05T01:40:51.123Z,72.47
2019-01-05T01:43:17.419Z,72.62
2019-01-05T01:45:43.707Z,73.06
2019-01-05T01:48:10.016Z,72.96
2019-01-05T01:50:36.320Z,72.12
2019-01-05T01:53:02.592Z,72.49
2019-01-05T01:55:28.882Z,72.31
2019-01-05T01:57:55.175Z,71.89
2019-01-05T02:00:21.494Z,71.95
2019-01-05T02:02:47.777Z,71.75
2019-01-05T02:05:14.053Z,72.56
2019-01-05T02:07:40.390Z,72.61
2019-01-05T02:10:06.669Z,72.71
2019-01-05T02:12:32.957Z,73.33
2019-01-05T02:14:59.259Z,73.41
2019-01-05T02:17:25.555Z,72.99
2019-01-05T02:19:51.880Z,73.48
2019-01-05T02:22:18.152Z,73.13
2019-01-05T02:24:44.434Z,73.51
2019-01-05T02:27:10.784Z,73.51
2019-01-05T02:29:37.087Z,73.76
2019-01-05T02:32:03.385Z,74.14
2019-01-05T02:34:29.670Z,74.30
2019-01-05T02:36:55.978Z,74.36
2019-01-05T02:39:22.257Z,74.06
2019-01-05T02:41:48.558Z,73.93
2019-01-05T02:44:14.882Z,74.51
2019-01-05T02:46:41.176Z,74.85
2019-01-05T02:49:07.457Z,74.79
2019-01-05T02:51:33.801Z,74.56
2019-01-05T02:54:00.069Z,74.40
2019-01-05T02:56:26.374Z,74.40
2019-01-05T02:58:52.671Z,74.44
2019-01-05T03:01:18.988Z,74.35
2019-01-05T03:03:45.258Z,74.57
2019-01-05T03:06:11.568Z,74.73
2019-01-05T03:08:37.865Z,74.89
2019-01-05T03:11:04.198Z,75.57
2019-01-05T03:13:30.470Z,76.40
2019-01-05T03:15:56.781Z,76.32
2019-01-05T03:18:23.060Z,76.12
2019-01-05T03:20:49.346Z,76.75
2019-01-05T03:23:15.651Z,76.84
2019-01-05T03:25:41.946Z,77.14
2019-01-05T03:28:08.232Z,77.29
2019-01-05T03:30:34.539Z,77.12
2019-01-05T03:33:00.818Z,77.07
2019-01-05T03:35:27.106Z,76.86
2019-01-05T03:37:53.415Z,77.11
2019-01-05T03:40:19.710Z,77.28
2019-01-05T03:42:45.982Z,77.36
2019-01-05T03:45:12.273Z,77.25
2019-01-05T03:47:38.562Z,77.65
2019-01-05T03:50:04.885Z,77.18
2019-01-05T03:52:31.166Z,77.33
2019-01-05T03:54:57.447Z,77.56
2019-01-05T03:57:23.734Z,77.48
2019-01-05T03:59:50.020Z,77.33
2019-01-05T04:02:16.291Z,77.54
2019-01-05T04:04:42.571Z,77.68
2019-01-05T04:07:08.911Z,77.38
2019-01-05T04:09:35.194Z,77.12
2019-01-05T04:12:01.472Z,77.25
2019-01-05T04:14:27.773Z,77.36
2019-01-05T04:16:54.049Z,77.53
2019-01-05T04:19:20.375Z,77.36
2019-01-05T04:21:46.665Z,77.34
2019-01-05T04:24:12.959Z,77.80
2019-01-05T04:26:39.283Z,78.12
2019-01-05T04:29:05.592Z,78.29
2019-01-05T04:31:31.887Z,78.42
2019-01-05T04:33:58.218Z,78.17
2019-01-05T04:36:24.492Z,78.29
2019-01-05T04:38:50.790Z,78.04
2019-01-05T04:41:17.097Z,77.75
2019-01-05T04:43:43.384Z,78.07
2019-01-05T04:46:09.685Z,77.93
2019-01-05T04:48:35.959Z,78.35
2019-01-05T04:51:02.244Z,78.10
2019-01-05T04:53:28.578Z,78.09
2019-01-05T04:55:54.878Z,78.42
2019-01-05T04:58:21.213Z,78.11
2019-01-05T05:00:47.504Z,77.95
2019-01-05T05:03:13.776Z,78.38
2019-01-05T05:05:40.049Z,78.25
2019-01-05T05:08:06.359Z,77.71
2019-01-05T05:10:32.626Z,76.83
2019-01-05T05:12:58.932Z,76.41
2019-01-05T05:15:25.231Z,76.27
2019-01-05T05:17:51.545Z,75.46
2019-01-05T05:20:19.184Z,75.27
2019-01-05T05:22:44.124Z,75.06
2019-01-05T05:25:10.371Z,74.54
2019-01-05T05:27:36.650Z,74.98
2019-01-05T05:30:07.025Z,74.90
2019-01-05T05:32:33.334Z,74.56
2019-01-05T05:34:59.610Z,74.46
2019-01-05T05:37:25.924Z,74.49
2019-01-05T05:39:52.213Z,74.56
2019-01-05T05:42:18.486Z,74.67
2019-01-05T05:44:44.769Z,74.41
2019-01-05T05:47:11.079Z,74.13
2019-01-05T05:49:37.398Z,73.93
2019-01-05T05:52:03.688Z,73.58
2019-01-05T05:54:29.967Z,73.99
2019-01-05T05:56:56.242Z,73.99
2019-01-05T05:59:22.524Z,73.53
2019-01-05T06:01:48.856Z,73.99
2019-01-05T06:04:15.145Z,74.87
2019-01-05T06:06:41.451Z,75.37
2019-01-05T06:09:07.745Z,76.04
2019-01-05T06:11:34.008Z,76.11
2019-01-05T06:14:00.289Z,76.44
2019-01-05T06:16:26.594Z,76.35
2019-01-05T06:18:52.920Z,76.54
2019-01-05T06:21:19.205Z,76.98
2019-01-05T06:23:45.486Z,77.13
2019-01-05T06:26:11.762Z,77.40
2019-01-05T06:28:38.168Z,77.33
2019-01-05T06:31:04.509Z,77.44
2019-01-05T06:33:30.778Z,77.37
2019-01-05T06:35:57.227Z,77.31
2019-01-05T06:38:23.547Z,77.27
2019-01-05T06:40:49.834Z,77.43
2019-01-05T06:43:16.117Z,77.10
2019-01-05T06:45:42.390Z,77.06
2019-01-05T06:48:08.666Z,76.65
2019-01-05T06:50:34.974Z,76.63
2019-01-05T06:53:01.294Z,76.83
2019-01-05T06:55:27.600Z,75.83
2019-01-05T06:57:53.898Z,74.77
2019-01-05T07:00:20.177Z,74.45
2019-01-05T07:02:46.452Z,74.13
2019-01-05T07:05:12.759Z,73.02
2019-01-05T07:07:39.052Z,71.56
2019-01-05T07:10:05.342Z,70.50
2019-01-05T07:12:31.616Z,70.13
2019-01-05T07:14:57.889Z,69.61
2019-01-05T07:17:24.219Z,68.03
2019-01-05T07:19:50.500Z,68.67
2019-01-05T07:22:16.796Z,67.83
2019-01-05T07:24:43.095Z,67.13
2019-01-05T07:27:09.398Z,66.60
2019-01-05T07:29:35.696Z,67.27
2019-01-05T07:32:01.983Z,66.93
2019-01-05T07:34:28.291Z,66.04
2019-01-05T07:36:54.607Z,65.29
2019-01-05T07:39:20.940Z,65.23
2019-01-05T07:41:47.234Z,64.98
2019-01-05T07:44:13.531Z,64.12
2019-01-05T07:46:39.811Z,62.97
2019-01-05T07:49:06.091Z,62.72
2019-01-05T07:51:32.395Z,63.12
2019-01-05T07:53:58.720Z,63.81
2019-01-05T07:56:25.021Z,63.23
2019-01-05T07:58:51.330Z,65.05
2019-01-05T08:01:17.610Z,65.07
2019-01-05T08:03:43.909Z,64.59
2019-01-05T08:06:10.230Z,65.21
2019-01-05T08:08:36.497Z,64.93
2019-01-05T08:11:02.780Z,64.71
2019-01-05T08:13:29.097Z,65.90
2019-01-05T08:15:55.402Z,65.62
2019-01-05T08:18:21.709Z,65.47
2019-01-05T08:20:48.032Z,65.40
2019-01-05T08:23:14.343Z,63.46
2019-01-05T08:25:40.639Z,63.03
2019-01-05T08:28:06.946Z,64.61
2019-01-05T08:30:33.259Z,64.98
2019-01-05T08:32:59.551Z,62.61
2019-01-05T08:35:27.107Z,58.64
2019-01-05T08:37:52.160Z,59.52
2019-01-05T08:40:18.460Z,60.09
2019-01-05T08:42:44.755Z,59.37
2019-01-05T08:45:11.034Z,60.67
2019-01-05T08:47:37.338Z,57.81
2019-01-05T08:50:03.618Z,58.67
2019-01-05T08:52:29.903Z,59.66
2019-01-05T08:54:56.219Z,59.54
2019-01-05T08:57:22.518Z,60.12
2019-01-05T08:59:48.802Z,60.07
2019-01-05T09:02:15.191Z,59.83
2019-01-05T09:04:41.428Z,59.89
2019-01-05T09:07:08.214Z,60.00
2019-01-05T09:09:34.081Z,59.39
2019-01-05T09:12:13.600Z,58.91
2019-01-05T09:14:39.872Z,59.24
2019-01-05T09:17:06.180Z,60.16
2019-01-05T09:19:32.479Z,57.94
2019-01-05T09:21:58.775Z,56.74
2019-01-05T09:24:25.084Z,57.51
2019-01-05T09:26:51.352Z,57.13
2019-01-05T09:29:17.644Z,58.74
2019-01-05T09:31:43.939Z,59.35
2019-01-05T09:34:10.263Z,60.88
2019-01-05T09:36:36.544Z,62.77
2019-01-05T09:39:02.831Z,62.63
2019-01-05T09:41:29.108Z,60.60
2019-01-05T09:43:55.405Z,59.12
2019-01-05T09:46:21.679Z,57.77
2019-01-05T09:48:47.963Z,56.01
2019-01-05T09:51:14.286Z,53.92
2019-01-05T09:53:40.595Z,53.75
2019-01-05T09:56:06.869Z,52.66
2019-01-05T09:58:33.171Z,54.40
2019-01-05T10:00:59.486Z,52.66
2019-01-05T10:03:25.760Z,52.37
2019-01-05T10:05:52.131Z,51.16
2019-01-05T10:08:18.449Z,52.92
2019-01-05T10:10:44.731Z,52.85
2019-01-05T10:13:11.027Z,53.84
2019-01-05T10:15:37.328Z,55.60
2019-01-05T10:18:03.621Z,56.79
2019-01-05T10:20:29.912Z,56.63
2019-01-05T10:22:56.216Z,56.87
2019-01-05T10:25:22.623Z,56.26
2019-01-05T10:27:48.916Z,57.08
2019-01-05T10:30:15.256Z,57.06
2019-01-05T10:32:41.540Z,55.84
2019-01-05T10:35:17.096Z,56.21
2019-01-05T10:37:43.396Z,54.79
2019-01-05T10:40:09.720Z,54.43
2019-01-05T10:42:36.117Z,56.14
2019-01-05T10:45:02.417Z,53.19
2019-01-05T10:47:28.726Z,51.00
2019-01-05T10:49:55.035Z,50.66
2019-01-05T10:52:21.329Z,50.02
2019-01-05T10:54:47.635Z,51.27
2019-01-05T10:57:13.933Z,50.85
2019-01-05T10:59:40.215Z,52.28
2019-01-05T11:02:06.543Z,50.50
2019-01-05T11:04:32.885Z,51.21
2019-01-05T11:07:00.216Z,49.85
2019-01-05T11:09:25.483Z,51.07
2019-01-05T11:11:51.798Z,50.21
2019-01-05T11:14:18.230Z,50.25
2019-01-05T11:16:44.523Z,50.14
2019-01-05T11:19:10.839Z,51.57
2019-01-05T11:21:37.163Z,51.04
2019-01-05T11:24:03.431Z,50.84
2019-01-05T11:26:29.771Z,50.71
2019-01-05T11:28:56.044Z,51.25
2019-01-05T11:31:22.353Z,50.59
2019-01-05T11:33:48.619Z,50.23
2019-01-05T11:36:14.931Z,50.18
2019-01-05T11:38:41.248Z,51.11
2019-01-05T11:41:07.556Z,49.91
2019-01-05T11:43:33.848Z,50.87
2019-01-05T11:46:00.149Z,52.84
2019-01-05T11:48:26.462Z,51.71
2019-01-05T11:50:52.778Z,51.00
2019-01-05T11:53:19.064Z,51.50
2019-01-05T11:55:45.346Z,49.56
2019-01-05T11:58:11.638Z,49.42
2019-01-05T12:00:37.924Z,48.97
2019-01-05T12:03:04.209Z,49.36
2019-01-05T12:05:30.517Z,51.21
2019-01-05T12:07:56.829Z,50.26
2019-01-05T12:10:23.127Z,51.65
2019-01-05T12:12:49.426Z,50.77
2019-01-05T12:15:15.704Z,51.84
2019-01-05T12:17:41.991Z,50.11
2019-01-05T12:20:08.280Z,50.40
2019-01-05T12:22:34.553Z,50.52
2019-01-05T12:25:00.898Z,50.65
2019-01-05T12:27:27.198Z,50.80
2019-01-05T12:29:53.538Z,51.50
2019-01-05T12:32:19.826Z,51.20
2019-01-05T12:34:46.123Z,50.15
2019-01-05T12:37:12.447Z,49.93
2019-01-05T12:39:38.753Z,49.03
2019-01-05T12:42:05.029Z,47.64
2019-01-05T12:44:31.449Z,48.80
2019-01-05T12:46:57.695Z,49.14
2019-01-05T12:49:23.991Z,49.54
2019-01-05T12:51:50.323Z,49.05
2019-01-05T12:54:16.626Z,49.66
2019-01-05T12:56:42.905Z,49.80
2019-01-05T12:59:09.234Z,49.27
2019-01-05T13:01:35.597Z,49.24
2019-01-05T13:04:01.902Z,49.55
2019-01-05T13:06:28.202Z,49.54
2019-01-05T13:08:54.482Z,49.72
2019-01-05T13:11:20.787Z,49.68
2019-01-05T13:13:47.080Z,48.85
2019-01-05T13:16:13.356Z,49.28
2019-01-05T13:18:39.676Z,49.61
2019-01-05T13:21:05.950Z,49.29
2019-01-05T13:23:32.277Z,48.74
2019-01-05T13:25:58.563Z,48.86
2019-01-05T13:28:24.859Z,49.40
2019-01-05T13:30:51.222Z,49.32
2019-01-05T13:33:17.544Z,49.40
2019-01-05T13:35:43.826Z,49.50
2019-01-05T13:38:10.137Z,49.85
2019-01-05T13:40:36.426Z,49.91
2019-01-05T13:43:02.727Z,50.01
2019-01-05T13:45:29.007Z,50.15
2019-01-05T13:47:55.358Z,50.90
2019-01-05T13:50:21.657Z,51.67
2019-01-05T13:52:47.925Z,52.98
2019-01-05T13:55:14.259Z,55.03
2019-01-05T13:57:40.940Z,56.52
2019-01-05T14:00:06.875Z,57.69
2019-01-05T14:02:33.172Z,57.80
2019-01-05T14:04:59.459Z,58.48
2019-01-05T14:07:25.747Z,59.85
2019-01-05T14:09:52.067Z,59.48
2019-01-05T14:12:18.377Z,60.10
2019-01-05T14:14:44.661Z,60.81
2019-01-05T14:17:10.960Z,60.44
2019-01-05T14:19:37.329Z,61.21
2019-01-05T14:22:03.651Z,61.31
2019-01-05T14:24:29.960Z,62.00
2019-01-05T14:26:56.267Z,62.49
2019-01-05T14:29:22.558Z,63.15
2019-01-05T14:31:48.877Z,62.88
2019-01-05T14:34:15.149Z,63.24
2019-01-05T14:36:41.448Z,63.64
2019-01-05T14:39:07.793Z,63.37
2019-01-05T14:41:34.072Z,63.98
2019-01-05T14:44:00.349Z,64.30
2019-01-05T14:46:26.667Z,64.75
2019-01-05T14:48:53.015Z,64.50
2019-01-05T14:51:19.319Z,64.72
2019-01-05T14:53:45.630Z,65.17
2019-01-05T14:56:11.984Z,65.39
2019-01-05T14:58:38.268Z,65.76
2019-01-05T15:01:04.581Z,65.98
2019-01-05T15:03:30.875Z,67.38
2019-01-05T15:05:57.238Z,67.07
2019-01-05T15:08:23.452Z,67.32
2019-01-05T15:10:49.767Z,68.07
2019-01-05T15:13:16.109Z,68.61
2019-01-05T15:15:42.447Z,67.96
2019-01-05T15:18:08.742Z,68.18
2019-01-05T15:20:35.046Z,68.34
2019-01-05T15:23:01.349Z,68.63
2019-01-05T15:25:27.621Z,68.45
2019-01-05T15:27:53.897Z,70.20
2019-01-05T15:30:20.191Z,69.05
2019-01-05T15:32:46.474Z,69.03
2019-01-05T15:35:12.779Z,69.26
2019-01-05T15:37:39.078Z,69.42
2019-01-05T15:40:05.612Z,69.87
2019-01-05T15:42:32.349Z,70.60
2019-01-05T15:44:58.635Z,70.82
2019-01-05T15:47:24.928Z,71.17
2019-01-05T15:49:51.265Z,71.14
2019-01-05T15:52:17.546Z,71.35
2019-01-05T15:54:43.892Z,71.94
2019-01-05T15:57:10.240Z,72.34
2019-01-05T15:59:36.564Z,72.06
2019-01-05T16:02:02.869Z,72.17
2019-01-05T16:04:29.143Z,72.47
2019-01-05T16:06:55.454Z,72.80
2019-01-05T16:09:21.748Z,72.24
2019-01-05T16:11:48.016Z,72.32
2019-01-05T16:14:14.308Z,72.47
2019-01-05T16:16:40.587Z,72.46
2019-01-05T16:19:06.887Z,72.78
2019-01-05T16:21:33.175Z,73.09
2019-01-05T16:23:59.501Z,73.16
2019-01-05T16:26:26.306Z,73.64
2019-01-05T16:28:52.177Z,73.66
2019-01-05T16:31:18.480Z,73.44
2019-01-05T16:33:44.755Z,73.47
2019-01-05T16:36:11.061Z,73.81
2019-01-05T16:38:37.351Z,74.04
2019-01-05T16:41:06.445Z,74.27
2019-01-05T16:43:32.752Z,74.30
2019-01-05T16:45:59.035Z,74.61
2019-01-05T16:48:25.314Z,74.59
2019-01-05T16:50:51.617Z,75.02
2019-01-05T16:53:17.972Z,75.23
2019-01-05T16:55:44.172Z,75.62
2019-01-05T16:58:10.492Z,75.40
2019-01-05T17:00:36.843Z,75.84
2019-01-05T17:03:03.077Z,76.01
2019-01-05T17:05:29.392Z,75.71
2019-01-05T17:07:55.657Z,75.62
2019-01-05T17:10:21.946Z,75.78
2019-01-05T17:12:48.239Z,75.77
2019-01-05T17:15:14.532Z,75.80
2019-01-05T17:17:40.827Z,75.42
2019-01-05T17:20:07.108Z,75.32
2019-01-05T17:22:34.433Z,75.12
2019-01-05T17:24:59.695Z,75.05
2019-01-05T17:27:26.017Z,75.02
2019-01-05T17:29:52.329Z,75.31
2019-01-05T17:32:18.607Z,75.32
2019-01-05T17:34:44.906Z,75.43
2019-01-05T17:37:11.212Z,75.18
2019-01-05T17:39:37.486Z,74.89
2019-01-05T17:42:03.761Z,74.80
2019-01-05T17:44:30.067Z,74.77
2019-01-05T17:46:56.362Z,74.90
2019-01-05T17:49:22.644Z,74.75
2019-01-05T17:51:48.933Z,74.61
2019-01-05T17:54:15.205Z,74.67
2019-01-05T17:56:41.505Z,74.85
2019-01-05T17:59:07.780Z,74.92
2019-01-05T18:01:34.174Z,75.12
2019-01-05T18:04:00.485Z,75.55
2019-01-05T18:06:26.807Z,75.55
2019-01-05T18:08:53.076Z,75.74
2019-01-05T18:11:19.385Z,75.68
2019-01-05T18:13:46.622Z,75.57
2019-01-05T18:16:11.996Z,75.30
2019-01-05T18:18:38.263Z,75.15
2019-01-05T18:21:04.566Z,75.12
2019-01-05T18:23:30.961Z,75.37
2019-01-05T18:26:00.224Z,75.35
2019-01-05T18:28:26.494Z,75.23
2019-01-05T18:30:52.815Z,75.18
2019-01-05T18:33:19.152Z,75.09
2019-01-05T18:35:45.426Z,75.30
2019-01-05T18:38:11.715Z,75.48
2019-01-05T18:40:38.044Z,75.04
2019-01-05T18:43:04.492Z,75.12
2019-01-05T18:45:30.753Z,75.14
2019-01-05T18:47:58.143Z,75.48
2019-01-05T18:50:24.437Z,75.38
2019-01-05T18:52:50.723Z,75.45
2019-01-05T18:55:17.066Z,75.34
2019-01-05T18:57:43.321Z,75.67
2019-01-05T19:00:09.657Z,75.41
2019-01-05T19:02:35.980Z,75.20
2019-01-05T19:05:02.253Z,75.33
2019-01-05T19:07:28.528Z,75.40
2019-01-05T19:09:54.846Z,75.56
2019-01-05T19:12:21.151Z,75.66
2019-01-05T19:14:47.402Z,75.92
2019-01-05T19:17:13.705Z,76.08
2019-01-05T19:19:40.027Z,76.07
2019-01-05T19:22:06.300Z,76.04
2019-01-05T19:24:32.579Z,75.90
2019-01-05T19:26:58.860Z,75.60
2019-01-05T19:29:25.172Z,75.60
2019-01-05T19:31:51.488Z,75.23
2019-01-05T19:34:17.797Z,75.34
2019-01-05T19:36:44.106Z,75.65
2019-01-05T19:39:10.385Z,75.58
2019-01-05T19:41:36.669Z,75.54
2019-01-05T19:44:02.947Z,75.71
2019-01-05T19:46:29.236Z,76.02
2019-01-05T19:48:55.534Z,76.12
2019-01-05T19:51:21.854Z,76.20
2019-01-05T19:53:48.129Z,76.28
2019-01-05T19:56:14.422Z,76.38
2019-01-05T19:58:40.709Z,76.48
2019-01-05T20:01:07.127Z,77.23
2019-01-05T20:03:33.263Z,77.67
2019-01-05T20:05:59.539Z,77.90
2019-01-05T20:08:25.818Z,78.21
2019-01-05T20:10:52.107Z,77.74
2019-01-05T20:13:18.380Z,77.34
2019-01-05T20:15:44.699Z,76.91
2019-01-05T20:18:10.996Z,76.93
2019-01-05T20:20:37.306Z,76.92
2019-01-05T20:23:03.590Z,76.97
2019-01-05T20:25:29.904Z,77.00
2019-01-05T20:27:56.198Z,77.07
2019-01-05T20:30:22.492Z,76.96
2019-01-05T20:32:48.769Z,76.78
2019-01-05T20:35:15.045Z,76.61
2019-01-05T20:37:41.340Z,76.66
2019-01-05T20:40:07.648Z,76.48
2019-01-05T20:42:33.944Z,76.40
2019-01-05T20:45:00.255Z,76.82
2019-01-05T20:47:26.527Z,77.12
2019-01-05T20:49:52.925Z,77.18
2019-01-05T20:52:20.122Z,77.11
2019-01-05T20:54:46.425Z,77.20
2019-01-05T20:57:12.788Z,76.79
2019-01-05T20:59:39.099Z,76.94
2019-01-05T21:02:05.524Z,76.97
2019-01-05T21:04:31.812Z,76.96
2019-01-05T21:06:58.111Z,77.12
2019-01-05T21:09:24.468Z,76.79
2019-01-05T21:11:50.775Z,76.75
2019-01-05T21:14:17.053Z,76.90
2019-01-05T21:16:43.668Z,77.41
2019-01-05T21:19:09.976Z,77.02
2019-01-05T21:21:36.284Z,77.39
2019-01-05T21:24:02.605Z,76.99
2019-01-05T21:26:28.887Z,77.71
2019-01-05T21:28:55.183Z,77.70
2019-01-05T21:31:21.466Z,77.22
2019-01-05T21:33:47.791Z,77.64
2019-01-05T21:36:14.089Z,77.47
2019-01-05T21:38:40.360Z,77.66
2019-01-05T21:41:06.645Z,77.40
2019-01-05T21:43:32.950Z,77.25
2019-01-05T21:45:59.228Z,77.62
2019-01-05T21:48:25.508Z,77.86
2019-01-05T21:50:51.823Z,77.61
2019-01-05T21:53:18.125Z,77.48
2019-01-05T21:55:44.400Z,77.70
2019-01-05T21:58:10.686Z,77.38
2019-01-05T22:00:36.963Z,77.25
2019-01-05T22:03:03.258Z,77.21
2019-01-05T22:05:29.532Z,77.51
2019-01-05T22:07:55.838Z,78.03
2019-01-05T22:10:22.263Z,77.84
2019-01-05T22:12:48.578Z,78.28
2019-01-05T22:15:15.375Z,78.16
2019-01-05T22:17:41.562Z,78.41
2019-01-05T22:20:07.843Z,78.75
2019-01-05T22:22:36.038Z,78.68
2019-01-05T22:25:00.662Z,78.43
2019-01-05T22:27:27.016Z,79.47
2019-01-05T22:29:53.292Z,78.91
2019-01-05T22:32:19.567Z,78.26
2019-01-05T22:34:45.847Z,78.01
2019-01-05T22:37:12.139Z,78.19
2019-01-05T22:39:38.454Z,77.88
2019-01-05T22:42:04.749Z,78.19
2019-01-05T22:44:31.031Z,78.42
2019-01-05T22:46:57.321Z,78.67
2019-01-05T22:49:23.616Z,78.68
2019-01-05T22:51:49.901Z,78.98
2019-01-05T22:54:16.197Z,79.26
2019-01-05T22:56:42.489Z,79.25
2019-01-05T22:59:08.913Z,79.35
2019-01-05T23:01:35.150Z,79.27
2019-01-05T23:04:01.557Z,79.36
2019-01-05T23:06:27.775Z,79.34
2019-01-05T23:08:54.065Z,79.39
2019-01-05T23:11:20.349Z,79.45
2019-01-05T23:13:46.683Z,79.48
2019-01-05T23:16:13.088Z,79.44
2019-01-05T23:18:39.408Z,79.27
2019-01-05T23:21:05.694Z,79.20
2019-01-05T23:23:31.988Z,79.35
2019-01-05T23:25:58.291Z,79.46
2019-01-05T23:28:24.574Z,79.56
2019-01-05T23:30:51.328Z,79.68
2019-01-05T23:33:17.629Z,79.49
2019-01-05T23:35:43.902Z,79.50
2019-01-05T23:38:10.271Z,79.58
2019-01-05T23:40:36.517Z,79.48
2019-01-05T23:43:02.822Z,79.55
2019-01-05T23:45:29.109Z,79.74
2019-01-05T23:47:55.371Z,79.36
2019-01-05T23:50:21.667Z,79.34
2019-01-05T23:52:47.946Z,79.54
2019-01-05T23:55:14.351Z,79.39
2019-01-05T23:57:40.624Z,79.45
